Terminal Aerodrome Forecast
Issued by NWS

Home | Current Version | Previous Version | Text Only | Print | Product List | Glossary Off
Versions: 1 2 3 4 5 6 7 8 9 10 11 12 13 14

000
FTUS45 KGGW 211129
TAFOLF
TAF
KOLF 211129Z 2112/2212 08008KT P6SM BKN100
     FM211500 09013KT P6SM BKN090
     FM220600 07013KT P6SM OVC040=

USA.gov is the U.S. government's official web portal to all federal, state and local government web resources and services.